Terminal Aerodrome Forecast
Issued by NWS

Home | Current Version | Previous Version | Text Only | Print | Product List | Glossary On
Versions: 1 2 3 4 5 6 7 8 9 10 11 12 13 14 15 16 17 18 19 20 21 22
882
FTUS43 KAPX 061120
TAFPLN
TAF
KPLN 061120Z 0612/0712 22004KT P6SM FEW250
     FM061800 19008KT P6SM FEW250
     FM070600 21005KT P6SM VCTS BKN050CB
     FM070800 25006KT 5SM -TSRA BR BKN025CB
     FM070900 26007KT P6SM VCSH BKN015
     FM071100 31008KT 3SM BR OVC001=

USA.gov is the U.S. government's official web portal to all federal, state and local government web resources and services.